Página principal
METAR-TAF:

METAR-TAF

Aeroportos :

Point Hope, Alasca, Estados Unidos

latitude: 68-21N, longitude: 166-48W, altura: 4 m

Observação actual do tempo

O boletim foi feito há 20 minutos, às 08:00 UTC
Vento 5 kt de sul
Temperatura 5°C
Humidade 93%
Pressão 1014 hPa
Visibilidade: 0.4 km
nevoeiro

METAR: PAPO 250800Z AUTO 19005KT 1/4SM FG VV002 05/04 A2994 RMK AO2

Hora: 00:20 (08:20 UTC)


TAF: em falta

Observações e previsões do tempo de mais de 4000 aeroportos (mensagens METAR e TAF).

As estações disponíveis são os pontos amarelos e vermelhos sobre o mapa.

Mova o rato sobre o mapa para ver o nome da estação.

Depois clique no ponto para visualizar as observações e previsões meteorológicas.

Para alterar o mapa : clique nos botões verdes com uma cruz preta para aumentar o zoom; no botão verde com uma pitada de zoom; ou nas setas verdes para mapas adjacentes.


METAR-TAF: